createdAt,value
2022-11-30T00:01:11.855Z,53.85
2022-11-30T00:03:38.412Z,54.47
2022-11-30T00:06:10.272Z,55.42
2022-11-30T00:08:36.678Z,58.90
2022-11-30T00:11:14.776Z,51.95
2022-11-30T00:13:41.946Z,55.67
2022-11-30T00:16:08.739Z,53.58
2022-11-30T00:18:36.319Z,55.75
2022-11-30T00:21:05.635Z,52.13
2022-11-30T00:23:36.690Z,56.85
2022-11-30T00:26:04.438Z,51.22
2022-11-30T00:28:32.394Z,56.53
2022-11-30T00:31:00.723Z,50.90
2022-11-30T00:33:28.261Z,54.92
2022-11-30T00:36:08.395Z,54.20
2022-11-30T00:38:34.882Z,55.22
2022-11-30T00:41:02.058Z,53.33
2022-11-30T00:43:29.136Z,57.53
2022-11-30T00:45:55.784Z,57.65
2022-11-30T00:48:22.294Z,58.78
2022-11-30T00:50:49.772Z,57.55
2022-11-30T00:53:16.743Z,54.05
2022-11-30T00:55:44.384Z,54.38
2022-11-30T00:58:11.926Z,53.05
2022-11-30T01:00:38.403Z,53.60
2022-11-30T01:03:05.020Z,55.55
2022-11-30T01:05:33.119Z,58.10
2022-11-30T01:08:01.345Z,53.28
2022-11-30T01:10:27.942Z,54.58
2022-11-30T01:12:54.458Z,56.40
2022-11-30T01:15:20.865Z,53.53
2022-11-30T01:17:47.252Z,59.05
2022-11-30T01:20:13.716Z,60.00
2022-11-30T01:22:40.139Z,55.67
2022-11-30T01:25:06.855Z,59.15
2022-11-30T01:27:33.282Z,56.53
2022-11-30T01:29:59.642Z,54.58
2022-11-30T01:32:26.000Z,55.40
2022-11-30T01:34:52.434Z,56.70
2022-11-30T01:37:19.199Z,56.28
2022-11-30T01:39:45.572Z,56.42
2022-11-30T01:42:18.466Z,55.13
2022-11-30T01:44:54.067Z,55.45
2022-11-30T01:47:40.158Z,52.58
2022-11-30T01:50:12.305Z,53.05
2022-11-30T01:52:42.935Z,55.95
2022-11-30T01:55:24.377Z,55.25
2022-11-30T01:57:56.071Z,60.05
2022-11-30T02:00:23.202Z,57.20
2022-11-30T02:03:19.932Z,58.85
2022-11-30T02:05:46.460Z,54.38
2022-11-30T02:08:13.274Z,56.55
2022-11-30T02:10:43.952Z,55.88
2022-11-30T02:13:25.620Z,54.20
2022-11-30T02:16:08.920Z,62.15
2022-11-30T02:19:13.071Z,57.63
2022-11-30T02:21:53.057Z,60.78
2022-11-30T02:24:32.671Z,57.00
2022-11-30T02:27:15.405Z,58.57
2022-11-30T02:30:10.792Z,58.00
2022-11-30T02:33:01.644Z,58.45
2022-11-30T02:35:33.369Z,61.10
2022-11-30T02:38:01.020Z,58.15
2022-11-30T02:40:27.586Z,54.97
2022-11-30T02:42:55.641Z,53.72
2022-11-30T02:45:44.329Z,61.15
2022-11-30T02:48:13.953Z,57.85
2022-11-30T02:51:02.246Z,62.33
2022-11-30T02:53:29.061Z,58.55
2022-11-30T02:55:55.437Z,55.15
2022-11-30T02:58:22.248Z,59.47
2022-11-30T03:00:48.677Z,58.58
2022-11-30T03:03:15.068Z,61.75
2022-11-30T03:05:41.488Z,57.30
2022-11-30T03:08:07.961Z,57.92
2022-11-30T03:10:34.338Z,59.65
2022-11-30T03:13:00.829Z,62.60
2022-11-30T03:15:27.695Z,63.88
2022-11-30T03:17:54.081Z,61.83
2022-11-30T03:20:20.445Z,61.97
2022-11-30T03:22:46.802Z,61.95
2022-11-30T03:25:13.210Z,60.65
2022-11-30T03:27:39.554Z,59.83
2022-11-30T03:30:06.619Z,59.88
2022-11-30T03:32:32.967Z,62.58
2022-11-30T03:34:59.389Z,60.47
2022-11-30T03:37:25.752Z,62.00
2022-11-30T03:39:57.777Z,61.97
2022-11-30T03:42:24.650Z,61.78
2022-11-30T03:44:51.010Z,63.45
2022-11-30T03:47:17.340Z,60.17
2022-11-30T03:49:43.709Z,60.58
2022-11-30T03:52:10.179Z,61.25
2022-11-30T03:54:36.532Z,60.65
2022-11-30T03:57:03.487Z,55.13
2022-11-30T03:59:29.872Z,60.92
2022-11-30T04:01:56.271Z,61.20
2022-11-30T04:04:22.674Z,63.08
2022-11-30T04:06:49.031Z,61.72
2022-11-30T04:09:15.406Z,61.50
2022-11-30T04:11:41.780Z,62.85
2022-11-30T04:14:08.190Z,63.03
2022-11-30T04:16:34.612Z,62.30
2022-11-30T04:19:01.224Z,61.55
2022-11-30T04:21:28.016Z,63.30
2022-11-30T04:23:54.396Z,64.03
2022-11-30T04:26:21.279Z,63.65
2022-11-30T04:28:47.683Z,63.47
2022-11-30T04:31:14.091Z,62.63
2022-11-30T04:33:40.543Z,61.97
2022-11-30T04:36:13.620Z,61.58
2022-11-30T04:38:40.002Z,61.63
2022-11-30T04:41:09.526Z,66.15
2022-11-30T04:43:36.170Z,61.27
2022-11-30T04:46:03.755Z,65.28
2022-11-30T04:48:30.124Z,63.88
2022-11-30T04:51:05.979Z,64.55
2022-11-30T04:53:33.402Z,65.63
2022-11-30T04:56:04.760Z,65.00
2022-11-30T04:58:31.141Z,61.83
2022-11-30T05:00:57.525Z,65.07
2022-11-30T05:03:23.940Z,63.20
2022-11-30T05:05:50.322Z,57.00
2022-11-30T05:08:16.715Z,62.90
2022-11-30T05:10:43.219Z,66.10
2022-11-30T05:13:10.194Z,59.17
2022-11-30T05:15:38.339Z,64.15
2022-11-30T05:18:04.779Z,59.63
2022-11-30T05:20:31.256Z,60.30
2022-11-30T05:22:57.660Z,58.63
2022-11-30T05:25:24.092Z,58.85
2022-11-30T05:27:52.765Z,62.05
2022-11-30T05:30:19.283Z,59.67
2022-11-30T05:32:45.734Z,61.47
2022-11-30T05:35:12.153Z,58.85
2022-11-30T05:37:38.560Z,62.95
2022-11-30T05:40:05.679Z,65.60
2022-11-30T05:42:32.082Z,66.65
2022-11-30T05:44:58.468Z,65.05
2022-11-30T05:47:24.956Z,65.07
2022-11-30T05:49:51.338Z,64.88
2022-11-30T05:52:17.728Z,68.25
2022-11-30T05:54:44.147Z,67.57
2022-11-30T05:57:10.537Z,69.07
2022-11-30T05:59:36.923Z,65.57
2022-11-30T06:02:03.336Z,67.43
2022-11-30T06:04:30.998Z,64.95
2022-11-30T06:06:57.432Z,68.70
2022-11-30T06:09:23.805Z,68.30
2022-11-30T06:11:50.388Z,63.92
2022-11-30T06:14:17.065Z,69.20
2022-11-30T06:16:43.466Z,66.97
2022-11-30T06:19:09.933Z,64.95
2022-11-30T06:21:36.317Z,70.75
2022-11-30T06:24:02.844Z,65.40
2022-11-30T06:26:29.213Z,69.13
2022-11-30T06:28:55.589Z,68.50
2022-11-30T06:31:22.034Z,69.53
2022-11-30T06:33:48.562Z,69.70
2022-11-30T06:36:20.685Z,71.40
2022-11-30T06:38:47.032Z,67.85
2022-11-30T06:41:13.396Z,71.78
2022-11-30T06:43:39.825Z,68.78
2022-11-30T06:46:07.392Z,67.05
2022-11-30T06:48:34.812Z,66.60
2022-11-30T06:51:01.605Z,66.10
2022-11-30T06:53:28.045Z,68.68
2022-11-30T06:55:54.474Z,67.50
2022-11-30T06:58:20.903Z,68.00
2022-11-30T07:00:47.533Z,64.63
2022-11-30T07:03:14.669Z,69.00
2022-11-30T07:05:46.204Z,64.35
2022-11-30T07:08:15.144Z,64.28
2022-11-30T07:10:42.962Z,69.80
2022-11-30T07:13:11.020Z,68.13
2022-11-30T07:15:38.345Z,68.70
2022-11-30T07:18:04.836Z,67.03
2022-11-30T07:20:31.522Z,64.47
2022-11-30T07:22:58.051Z,65.93
2022-11-30T07:25:43.172Z,73.15
2022-11-30T07:28:09.515Z,69.68
2022-11-30T07:30:35.912Z,68.30
2022-11-30T07:33:02.268Z,71.35
2022-11-30T07:35:28.625Z,74.72
2022-11-30T07:37:54.973Z,70.88
2022-11-30T07:40:21.346Z,71.13
2022-11-30T07:42:47.716Z,73.50
2022-11-30T07:45:14.111Z,78.57
2022-11-30T07:47:40.495Z,70.40
2022-11-30T07:50:07.348Z,70.85
2022-11-30T07:52:33.737Z,73.95
2022-11-30T07:55:00.114Z,72.10
2022-11-30T07:57:27.413Z,75.28
2022-11-30T07:59:53.773Z,69.60
2022-11-30T08:02:20.283Z,70.40
2022-11-30T08:04:47.194Z,71.35
2022-11-30T08:07:14.690Z,72.80
2022-11-30T08:09:41.155Z,69.57
2022-11-30T08:12:07.779Z,69.68
2022-11-30T08:14:50.482Z,69.28
2022-11-30T08:17:20.569Z,67.97
2022-11-30T08:19:47.430Z,70.85
2022-11-30T08:22:13.862Z,73.90
2022-11-30T08:24:40.224Z,74.90
2022-11-30T08:27:06.604Z,66.47
2022-11-30T08:29:32.977Z,66.97
2022-11-30T08:31:59.347Z,65.80
2022-11-30T08:34:26.722Z,67.55
2022-11-30T08:36:53.139Z,69.78
2022-11-30T08:39:19.572Z,67.82
2022-11-30T08:41:48.967Z,67.07
2022-11-30T08:44:15.404Z,66.65
2022-11-30T08:46:57.075Z,68.22
2022-11-30T08:49:24.790Z,65.72
2022-11-30T08:54:46.391Z,62.55
2022-11-30T08:57:14.786Z,63.40
2022-11-30T08:59:41.285Z,64.82
2022-11-30T09:02:10.719Z,66.90
2022-11-30T09:04:37.215Z,62.90
2022-11-30T09:07:04.245Z,67.28
2022-11-30T09:09:30.673Z,68.18
2022-11-30T09:11:57.098Z,64.03
2022-11-30T09:14:23.492Z,60.50
2022-11-30T09:16:49.907Z,64.50
2022-11-30T09:19:16.288Z,62.30
2022-11-30T09:21:49.602Z,61.85
2022-11-30T09:24:17.816Z,62.75
2022-11-30T09:26:44.190Z,66.47
2022-11-30T09:29:10.551Z,60.85
2022-11-30T09:31:36.924Z,60.40
2022-11-30T09:34:03.445Z,62.10
2022-11-30T09:36:30.911Z,63.35
2022-11-30T09:38:57.551Z,63.50
2022-11-30T09:41:53.893Z,63.65
2022-11-30T09:44:33.157Z,62.15
2022-11-30T09:47:10.231Z,63.78
2022-11-30T09:49:42.602Z,57.63
2022-11-30T09:52:15.781Z,60.80
2022-11-30T09:54:45.029Z,59.03
2022-11-30T09:57:33.600Z,64.10
2022-11-30T10:00:02.450Z,64.65
2022-11-30T10:02:31.498Z,65.75
2022-11-30T10:04:59.096Z,58.67
2022-11-30T10:07:44.513Z,63.08
2022-11-30T10:10:33.884Z,58.85
2022-11-30T10:13:18.948Z,62.40
2022-11-30T10:16:07.368Z,62.45
2022-11-30T10:18:55.773Z,58.58
2022-11-30T10:22:04.775Z,61.38
2022-11-30T10:24:40.236Z,59.83
2022-11-30T10:27:50.475Z,58.17
2022-11-30T10:30:25.190Z,62.60
2022-11-30T10:32:58.773Z,60.80
2022-11-30T10:35:31.154Z,61.28
2022-11-30T10:38:00.112Z,58.92
2022-11-30T10:40:47.716Z,60.10
2022-11-30T10:43:26.372Z,56.33
2022-11-30T10:45:53.065Z,57.20
2022-11-30T10:48:48.357Z,62.22
2022-11-30T10:51:15.021Z,58.25
2022-11-30T10:53:41.390Z,60.83
2022-11-30T10:56:11.000Z,59.65
2022-11-30T10:58:43.980Z,57.65
2022-11-30T11:01:29.773Z,55.70
2022-11-30T11:04:16.916Z,58.63
2022-11-30T11:06:51.800Z,55.42
2022-11-30T11:09:33.765Z,57.08
2022-11-30T11:12:27.430Z,57.13
2022-11-30T11:15:13.286Z,54.33
2022-11-30T11:17:39.667Z,54.40
2022-11-30T11:20:31.459Z,56.22
2022-11-30T11:22:58.078Z,55.58
2022-11-30T11:25:37.643Z,56.22
2022-11-30T11:28:14.344Z,53.13
2022-11-30T11:30:41.475Z,52.22
2022-11-30T11:33:11.418Z,48.97
2022-11-30T11:35:45.240Z,50.33
2022-11-30T11:38:28.807Z,52.60
2022-11-30T11:41:02.404Z,49.83
2022-11-30T11:43:31.807Z,50.35
2022-11-30T11:46:02.863Z,53.72
2022-11-30T11:48:33.730Z,52.50
2022-11-30T11:51:07.415Z,50.08
2022-11-30T11:54:01.553Z,49.15
2022-11-30T11:56:34.370Z,49.92
2022-11-30T11:59:07.737Z,48.22
2022-11-30T12:01:52.469Z,48.90
2022-11-30T12:04:37.732Z,49.35
2022-11-30T12:07:32.676Z,44.63
2022-11-30T12:10:52.324Z,46.22
2022-11-30T12:13:25.232Z,44.55
2022-11-30T12:16:16.127Z,46.28
2022-11-30T12:18:51.788Z,42.97
2022-11-30T12:21:29.076Z,46.47
2022-11-30T12:24:18.946Z,44.13
2022-11-30T12:26:57.097Z,45.50
2022-11-30T12:29:29.759Z,44.75
2022-11-30T12:32:33.983Z,44.38
2022-11-30T12:35:06.607Z,45.78
2022-11-30T12:38:15.059Z,43.55
2022-11-30T12:40:58.519Z,43.05
2022-11-30T12:44:04.160Z,42.78
2022-11-30T12:47:09.493Z,43.90
2022-11-30T12:49:45.356Z,43.35
2022-11-30T12:52:22.136Z,43.10
2022-11-30T12:55:22.492Z,42.63
2022-11-30T12:57:56.960Z,40.90
2022-11-30T13:00:25.215Z,44.95
2022-11-30T13:03:13.107Z,43.78
2022-11-30T13:05:50.577Z,46.53
2022-11-30T13:08:30.134Z,43.47
2022-11-30T13:11:03.251Z,40.73
2022-11-30T13:13:34.218Z,42.67
2022-11-30T13:16:04.645Z,41.60
2022-11-30T13:21:22.511Z,43.47
2022-11-30T13:23:59.961Z,43.10
2022-11-30T13:27:11.152Z,44.97
2022-11-30T13:29:55.835Z,43.97
2022-11-30T13:32:56.143Z,44.25
2022-11-30T13:35:27.754Z,41.00
2022-11-30T13:38:35.351Z,42.42
2022-11-30T13:41:01.566Z,43.13
2022-11-30T13:43:31.615Z,45.70
2022-11-30T13:46:20.588Z,48.78
2022-11-30T13:48:47.721Z,44.75
2022-11-30T13:51:35.019Z,44.72
2022-11-30T13:54:36.913Z,43.42
2022-11-30T13:57:22.730Z,48.72
2022-11-30T14:00:00.170Z,48.65
2022-11-30T14:02:41.747Z,50.22
2022-11-30T14:05:14.360Z,50.97
2022-11-30T14:07:40.801Z,51.00
2022-11-30T14:10:29.324Z,46.28
2022-11-30T14:13:01.461Z,47.85
2022-11-30T14:15:41.570Z,49.00
2022-11-30T14:18:07.959Z,47.53
2022-11-30T14:20:51.515Z,48.17
2022-11-30T14:23:43.798Z,48.75
2022-11-30T14:26:14.755Z,45.08
2022-11-30T14:28:57.341Z,52.90
2022-11-30T14:31:31.651Z,49.90
2022-11-30T14:34:05.456Z,48.70
2022-11-30T14:36:40.360Z,52.78
2022-11-30T14:39:24.099Z,52.38
2022-11-30T14:41:50.492Z,48.38
2022-11-30T14:44:16.861Z,49.00
2022-11-30T14:46:43.307Z,49.10
2022-11-30T14:49:18.647Z,52.28
2022-11-30T14:51:51.889Z,51.22
2022-11-30T14:54:52.788Z,49.22
2022-11-30T14:57:32.229Z,48.25
2022-11-30T14:59:58.797Z,49.33
2022-11-30T15:02:30.443Z,48.08
2022-11-30T15:04:58.583Z,46.63
2022-11-30T15:07:26.300Z,53.65
2022-11-30T15:10:01.446Z,51.55
2022-11-30T15:12:28.010Z,51.63
2022-11-30T15:15:17.672Z,50.53
2022-11-30T15:18:15.234Z,46.97
2022-11-30T15:21:05.860Z,47.75
2022-11-30T15:23:32.384Z,51.63
2022-11-30T15:26:02.794Z,50.20
2022-11-30T15:28:36.826Z,48.15
2022-11-30T15:31:07.560Z,48.90
2022-11-30T15:33:40.638Z,50.03
2022-11-30T15:36:31.446Z,51.20
2022-11-30T15:38:54.224Z,50.63
2022-11-30T15:41:24.162Z,49.95
2022-11-30T15:43:56.682Z,44.80
2022-11-30T15:46:42.774Z,51.42
2022-11-30T15:49:12.348Z,47.30
2022-11-30T15:51:40.726Z,53.30
2022-11-30T15:54:07.549Z,55.60
2022-11-30T15:56:34.494Z,48.58
2022-11-30T15:59:02.863Z,60.05
2022-11-30T16:01:31.875Z,55.33
2022-11-30T16:04:06.880Z,51.20
2022-11-30T16:06:47.555Z,57.40
2022-11-30T16:09:18.962Z,56.33
2022-11-30T16:11:47.238Z,63.80
2022-11-30T16:14:18.577Z,56.58
2022-11-30T16:16:45.922Z,55.97
2022-11-30T16:19:12.472Z,62.35
2022-11-30T16:21:39.115Z,54.63
2022-11-30T16:24:05.683Z,56.47
2022-11-30T16:29:18.717Z,63.65
2022-11-30T16:31:45.451Z,58.28
2022-11-30T16:34:12.271Z,65.30
2022-11-30T16:36:39.167Z,89.95
2022-11-30T16:39:05.847Z,161.48
2022-11-30T16:41:35.003Z,83.90
2022-11-30T16:44:01.514Z,89.35
2022-11-30T16:46:29.455Z,66.18
2022-11-30T16:48:55.992Z,64.25
2022-11-30T16:51:31.571Z,75.07
2022-11-30T16:53:58.308Z,70.43
2022-11-30T16:56:24.839Z,66.80
2022-11-30T16:58:54.108Z,64.40
2022-11-30T17:01:38.837Z,55.60
2022-11-30T17:04:26.652Z,64.28
2022-11-30T17:07:00.400Z,61.95
2022-11-30T17:09:30.278Z,60.92
2022-11-30T17:11:56.821Z,62.05
2022-11-30T17:14:23.269Z,61.45
2022-11-30T17:16:49.810Z,68.15
2022-11-30T17:19:16.288Z,65.85
2022-11-30T17:21:44.590Z,62.72
2022-11-30T17:24:12.504Z,62.67
2022-11-30T17:26:39.160Z,59.63
2022-11-30T17:29:06.131Z,65.68
2022-11-30T17:31:33.105Z,65.85
2022-11-30T17:33:59.887Z,61.47
2022-11-30T17:36:27.045Z,68.20
2022-11-30T17:38:53.495Z,63.40
2022-11-30T17:41:21.603Z,58.15
2022-11-30T17:43:48.732Z,65.72
2022-11-30T17:46:18.496Z,62.38
2022-11-30T17:48:45.578Z,63.88
2022-11-30T17:51:12.738Z,70.82
2022-11-30T17:53:40.345Z,57.88
2022-11-30T17:56:15.408Z,63.55
2022-11-30T17:58:44.414Z,65.43
2022-11-30T18:01:18.268Z,63.40
2022-11-30T18:03:45.188Z,65.03
2022-11-30T18:06:12.048Z,67.65
2022-11-30T18:08:40.092Z,59.55
2022-11-30T18:11:10.564Z,75.30
2022-11-30T18:16:13.692Z,67.93
2022-11-30T18:18:47.128Z,66.68
2022-11-30T18:21:15.650Z,82.53
2022-11-30T18:23:42.070Z,70.78
2022-11-30T18:26:12.463Z,101.10
2022-11-30T18:31:06.752Z,89.28
2022-11-30T18:33:34.486Z,75.38
2022-11-30T18:36:02.213Z,73.85
2022-11-30T18:38:32.863Z,70.90
2022-11-30T18:41:03.987Z,69.45
2022-11-30T18:43:33.932Z,67.60
2022-11-30T18:46:08.815Z,65.45
2022-11-30T18:48:35.764Z,66.78
2022-11-30T18:51:15.714Z,71.07
2022-11-30T18:53:42.750Z,61.55
2022-11-30T18:56:14.479Z,63.28
2022-11-30T18:58:42.215Z,66.53
2022-11-30T19:01:20.049Z,66.85
2022-11-30T19:03:51.644Z,68.20
2022-11-30T19:06:18.892Z,70.15
2022-11-30T19:08:47.643Z,58.45
2022-11-30T19:11:15.564Z,67.43
2022-11-30T19:13:42.267Z,57.63
2022-11-30T19:16:12.210Z,60.92
2022-11-30T19:18:38.877Z,59.20
2022-11-30T19:21:10.745Z,62.10
2022-11-30T19:23:38.180Z,62.90
2022-11-30T19:26:06.328Z,67.50
2022-11-30T19:28:34.630Z,69.80
2022-11-30T19:31:06.923Z,64.25
2022-11-30T19:33:35.390Z,52.33
2022-11-30T19:36:02.910Z,58.35
2022-11-30T19:38:29.395Z,57.55
2022-11-30T19:40:56.634Z,60.08
2022-11-30T19:43:23.126Z,62.30
2022-11-30T19:45:49.592Z,60.20
2022-11-30T19:48:16.004Z,65.07
2022-11-30T19:50:42.392Z,63.55
2022-11-30T19:53:08.862Z,65.00
2022-11-30T19:55:40.094Z,103.00
2022-11-30T19:58:06.560Z,83.00
2022-11-30T20:00:32.980Z,83.38
2022-11-30T20:02:59.466Z,75.38
2022-11-30T20:05:26.022Z,72.72
2022-11-30T20:07:52.441Z,72.03
2022-11-30T20:10:18.854Z,68.45
2022-11-30T20:12:45.226Z,66.70
2022-11-30T20:15:11.899Z,59.83
2022-11-30T20:17:38.277Z,63.38
2022-11-30T20:20:05.311Z,56.78
2022-11-30T20:22:33.273Z,63.95
2022-11-30T20:24:59.663Z,61.83
2022-11-30T20:27:26.203Z,60.90
2022-11-30T20:29:52.647Z,62.28
2022-11-30T20:32:19.686Z,58.08
2022-11-30T20:34:46.304Z,62.83
2022-11-30T20:37:13.705Z,54.83
2022-11-30T20:39:45.789Z,64.03
2022-11-30T20:42:12.849Z,53.03
2022-11-30T20:44:39.246Z,59.40
2022-11-30T20:47:06.611Z,57.67
2022-11-30T20:49:32.993Z,65.35
2022-11-30T20:51:59.427Z,53.53
2022-11-30T20:54:25.896Z,52.10
2022-11-30T20:56:52.349Z,60.25
2022-11-30T20:59:22.129Z,61.55
2022-11-30T21:01:48.702Z,53.72
2022-11-30T21:04:15.122Z,62.67
2022-11-30T21:06:45.357Z,59.92
2022-11-30T21:09:16.048Z,58.50
2022-11-30T21:11:43.569Z,57.90
2022-11-30T21:14:10.582Z,53.25
2022-11-30T21:16:37.093Z,57.80
2022-11-30T21:19:04.004Z,58.90
2022-11-30T21:21:32.685Z,55.65
2022-11-30T21:24:01.433Z,60.63
2022-11-30T21:26:33.931Z,59.58
2022-11-30T21:29:03.696Z,59.22
2022-11-30T21:31:31.164Z,64.15
2022-11-30T21:33:57.720Z,56.75
2022-11-30T21:36:24.223Z,67.82
2022-11-30T21:39:05.032Z,66.30
2022-11-30T21:41:34.677Z,61.92
2022-11-30T21:44:01.083Z,58.08
2022-11-30T21:46:27.815Z,71.22
2022-11-30T21:48:54.252Z,101.30
2022-11-30T21:51:23.956Z,62.70
2022-11-30T21:53:52.918Z,63.42
2022-11-30T21:56:22.714Z,61.10
2022-11-30T21:58:50.349Z,69.85
2022-11-30T22:01:19.843Z,64.45
2022-11-30T22:03:46.971Z,66.22
2022-11-30T22:06:18.453Z,63.10
2022-11-30T22:08:45.294Z,64.07
2022-11-30T22:11:14.178Z,59.50
2022-11-30T22:13:41.611Z,57.97
2022-11-30T22:16:11.414Z,58.35
2022-11-30T22:18:38.853Z,59.13
2022-11-30T22:21:08.073Z,57.85
2022-11-30T22:23:36.359Z,57.13
2022-11-30T22:26:08.961Z,53.78
2022-11-30T22:28:35.491Z,55.47
2022-11-30T22:31:06.792Z,55.63
2022-11-30T22:33:35.179Z,49.22
2022-11-30T22:36:02.363Z,52.42
2022-11-30T22:38:29.786Z,50.28
2022-11-30T22:41:09.917Z,50.47
2022-11-30T22:43:36.746Z,49.97
2022-11-30T22:46:05.138Z,47.50
2022-11-30T22:48:32.074Z,52.47
2022-11-30T22:51:06.111Z,49.03
2022-11-30T22:53:34.854Z,46.13
2022-11-30T22:56:03.072Z,45.90
2022-11-30T22:58:30.300Z,49.20
2022-11-30T23:00:57.181Z,50.72
2022-11-30T23:03:27.835Z,50.03
2022-11-30T23:05:54.897Z,45.83
2022-11-30T23:08:21.655Z,49.67
2022-11-30T23:10:49.251Z,47.13
2022-11-30T23:13:15.692Z,48.90
2022-11-30T23:15:42.176Z,43.65
2022-11-30T23:18:08.649Z,43.33
2022-11-30T23:20:36.084Z,46.47
2022-11-30T23:23:02.476Z,47.55
2022-11-30T23:25:28.881Z,44.80
2022-11-30T23:27:55.285Z,46.55
2022-11-30T23:30:21.649Z,45.83
2022-11-30T23:32:48.024Z,50.45
2022-11-30T23:35:14.483Z,46.40
2022-11-30T23:37:40.863Z,47.45
2022-11-30T23:40:07.913Z,49.90
2022-11-30T23:42:34.277Z,52.38
2022-11-30T23:45:01.068Z,51.00
2022-11-30T23:47:27.622Z,49.38
2022-11-30T23:49:54.028Z,50.47
2022-11-30T23:52:20.464Z,50.05
2022-11-30T23:54:46.896Z,47.85
2022-11-30T23:57:13.298Z,48.35
2022-11-30T23:59:39.653Z,50.10
